sensor_id;sensor_type;location;lat;lon;timestamp;pressure;altitude;pressure_sealevel;temperature;humidity
12594;BME280;6362;50.208;9.182;2022-10-16T00:00:32;99563.13;;;14.42;100.00
12594;BME280;6362;50.208;9.182;2022-10-16T00:02:58;99563.19;;;14.35;100.00
12594;BME280;6362;50.208;9.182;2022-10-16T00:05:23;99563.22;;;14.32;100.00
12594;BME280;6362;50.208;9.182;2022-10-16T00:07:49;99561.50;;;14.31;100.00
12594;BME280;6362;50.208;9.182;2022-10-16T00:10:15;99558.13;;;14.28;100.00
12594;BME280;6362;50.208;9.182;2022-10-16T00:12:40;99557.25;;;14.27;100.00
12594;BME280;6362;50.208;9.182;2022-10-16T00:15:06;99553.00;;;14.28;100.00
12594;BME280;6362;50.208;9.182;2022-10-16T00:17:31;99553.84;;;14.30;100.00
12594;BME280;6362;50.208;9.182;2022-10-16T00:19:57;99559.81;;;14.29;100.00
12594;BME280;6362;50.208;9.182;2022-10-16T00:22:23;99561.53;;;14.30;100.00
12594;BME280;6362;50.208;9.182;2022-10-16T00:24:48;99558.09;;;14.29;100.00
12594;BME280;6362;50.208;9.182;2022-10-16T00:27:14;99550.38;;;14.31;100.00
12594;BME280;6362;50.208;9.182;2022-10-16T00:29:39;99550.41;;;14.29;100.00
12594;BME280;6362;50.208;9.182;2022-10-16T00:32:05;99540.16;;;14.28;100.00
12594;BME280;6362;50.208;9.182;2022-10-16T00:34:30;99545.25;;;14.31;100.00
12594;BME280;6362;50.208;9.182;2022-10-16T00:36:56;99537.56;;;14.29;100.00
12594;BME280;6362;50.208;9.182;2022-10-16T00:39:21;99535.88;;;14.27;100.00
12594;BME280;6362;50.208;9.182;2022-10-16T00:41:47;99539.34;;;14.24;100.00
12594;BME280;6362;50.208;9.182;2022-10-16T00:47:09;99560.75;;;14.22;100.00
12594;BME280;6362;50.208;9.182;2022-10-16T00:49:36;99563.34;;;14.19;100.00
12594;BME280;6362;50.208;9.182;2022-10-16T00:52:02;99565.06;;;14.16;100.00
12594;BME280;6362;50.208;9.182;2022-10-16T00:54:29;99565.91;;;14.17;100.00
12594;BME280;6362;50.208;9.182;2022-10-16T00:56:58;99557.34;;;14.20;100.00
12594;BME280;6362;50.208;9.182;2022-10-16T00:59:28;99558.19;;;14.22;100.00
12594;BME280;6362;50.208;9.182;2022-10-16T01:01:54;99550.47;;;14.22;100.00
12594;BME280;6362;50.208;9.182;2022-10-16T01:04:20;99548.75;;;14.24;100.00
12594;BME280;6362;50.208;9.182;2022-10-16T01:06:55;99565.84;;;14.26;100.00
12594;BME280;6362;50.208;9.182;2022-10-16T01:12:32;99565.00;;;14.23;100.00
12594;BME280;6362;50.208;9.182;2022-10-16T01:15:14;99564.16;;;14.22;100.00
12594;BME280;6362;50.208;9.182;2022-10-16T01:17:53;99562.44;;;14.26;100.00
12594;BME280;6362;50.208;9.182;2022-10-16T01:20:29;99568.34;;;14.31;100.00
12594;BME280;6362;50.208;9.182;2022-10-16T01:29:02;99564.94;;;14.30;100.00
12594;BME280;6362;50.208;9.182;2022-10-16T01:31:32;99567.47;;;14.33;100.00
12594;BME280;6362;50.208;9.182;2022-10-16T01:34:25;99575.13;;;14.38;100.00
12594;BME280;6362;50.208;9.182;2022-10-16T01:37:02;99581.94;;;14.42;100.00
12594;BME280;6362;50.208;9.182;2022-10-16T01:39:31;99590.41;;;14.47;100.00
12594;BME280;6362;50.208;9.182;2022-10-16T01:42:06;99586.19;;;14.45;100.00
12594;BME280;6362;50.208;9.182;2022-10-16T01:44:34;99590.47;;;14.46;100.00
12594;BME280;6362;50.208;9.182;2022-10-16T01:47:02;99592.97;;;14.50;100.00
12594;BME280;6362;50.208;9.182;2022-10-16T01:49:32;99591.97;;;14.65;100.00
12594;BME280;6362;50.208;9.182;2022-10-16T01:52:00;99589.38;;;14.70;100.00
12594;BME280;6362;50.208;9.182;2022-10-16T01:54:30;99587.63;;;14.75;100.00
12594;BME280;6362;50.208;9.182;2022-10-16T01:56:57;99576.38;;;14.84;100.00
12594;BME280;6362;50.208;9.182;2022-10-16T01:59:25;99580.69;;;14.82;100.00
12594;BME280;6362;50.208;9.182;2022-10-16T02:01:55;99577.25;;;14.81;100.00
12594;BME280;6362;50.208;9.182;2022-10-16T02:04:29;99580.59;;;14.89;100.00
12594;BME280;6362;50.208;9.182;2022-10-16T02:06:57;99582.34;;;14.86;100.00
12594;BME280;6362;50.208;9.182;2022-10-16T02:09:22;99593.31;;;14.98;100.00
12594;BME280;6362;50.208;9.182;2022-10-16T02:11:49;99589.91;;;14.98;100.00
12594;BME280;6362;50.208;9.182;2022-10-16T02:14:16;99587.38;;;14.95;100.00
12594;BME280;6362;50.208;9.182;2022-10-16T02:16:44;99589.97;;;14.92;100.00
12594;BME280;6362;50.208;9.182;2022-10-16T02:19:11;99598.56;;;14.91;100.00
12594;BME280;6362;50.208;9.182;2022-10-16T02:21:44;99611.34;;;14.94;100.00
12594;BME280;6362;50.208;9.182;2022-10-16T02:27:08;99603.72;;;14.89;100.00
12594;BME280;6362;50.208;9.182;2022-10-16T02:29:39;99601.16;;;14.88;100.00
12594;BME280;6362;50.208;9.182;2022-10-16T02:32:06;99604.59;;;14.87;100.00
12594;BME280;6362;50.208;9.182;2022-10-16T02:34:36;99604.59;;;14.85;100.00
12594;BME280;6362;50.208;9.182;2022-10-16T02:37:04;99606.34;;;14.83;100.00
12594;BME280;6362;50.208;9.182;2022-10-16T02:39:30;99614.94;;;14.81;100.00
12594;BME280;6362;50.208;9.182;2022-10-16T02:41:56;99624.38;;;14.78;100.00
12594;BME280;6362;50.208;9.182;2022-10-16T02:44:21;99622.69;;;14.76;100.00
12594;BME280;6362;50.208;9.182;2022-10-16T02:46:47;99622.69;;;14.74;100.00
12594;BME280;6362;50.208;9.182;2022-10-16T02:49:12;99616.59;;;14.83;100.00
12594;BME280;6362;50.208;9.182;2022-10-16T02:51:38;99619.13;;;14.89;100.00
12594;BME280;6362;50.208;9.182;2022-10-16T02:54:03;99610.47;;;14.98;100.00
12594;BME280;6362;50.208;9.182;2022-10-16T02:56:29;99614.00;;;14.88;100.00
12594;BME280;6362;50.208;9.182;2022-10-16T02:58:56;99605.50;;;14.84;100.00
12594;BME280;6362;50.208;9.182;2022-10-16T03:01:21;99614.03;;;14.83;100.00
12594;BME280;6362;50.208;9.182;2022-10-16T03:03:47;99611.53;;;14.80;100.00
12594;BME280;6362;50.208;9.182;2022-10-16T03:06:12;99607.28;;;14.74;100.00
12594;BME280;6362;50.208;9.182;2022-10-16T03:08:38;99600.47;;;14.75;100.00
12594;BME280;6362;50.208;9.182;2022-10-16T03:11:04;99599.63;;;14.70;100.00
12594;BME280;6362;50.208;9.182;2022-10-16T03:13:29;99611.66;;;14.66;100.00
12594;BME280;6362;50.208;9.182;2022-10-16T03:15:55;99610.84;;;14.63;100.00
12594;BME280;6362;50.208;9.182;2022-10-16T03:18:20;99613.41;;;14.61;100.00
12594;BME280;6362;50.208;9.182;2022-10-16T03:20:46;99612.63;;;14.56;100.00
12594;BME280;6362;50.208;9.182;2022-10-16T03:23:11;99616.03;;;14.56;100.00
12594;BME280;6362;50.208;9.182;2022-10-16T03:25:37;99616.88;;;14.54;100.00
12594;BME280;6362;50.208;9.182;2022-10-16T03:28:03;99617.75;;;14.51;100.00
12594;BME280;6362;50.208;9.182;2022-10-16T03:30:29;99616.03;;;14.52;100.00
12594;BME280;6362;50.208;9.182;2022-10-16T03:32:54;99621.22;;;14.50;100.00
12594;BME280;6362;50.208;9.182;2022-10-16T03:35:21;99626.34;;;14.50;100.00
12594;BME280;6362;50.208;9.182;2022-10-16T03:37:47;99637.47;;;14.49;100.00
12594;BME280;6362;50.208;9.182;2022-10-16T03:40:12;99633.25;;;14.44;100.00
12594;BME280;6362;50.208;9.182;2022-10-16T03:42:38;99643.47;;;14.45;100.00
12594;BME280;6362;50.208;9.182;2022-10-16T03:45:04;99653.78;;;14.41;100.00
12594;BME280;6362;50.208;9.182;2022-10-16T03:47:29;99649.53;;;14.38;100.00
12594;BME280;6362;50.208;9.182;2022-10-16T03:49:57;99648.69;;;14.36;100.00
12594;BME280;6362;50.208;9.182;2022-10-16T03:52:23;99650.41;;;14.34;100.00
12594;BME280;6362;50.208;9.182;2022-10-16T03:54:48;99653.00;;;14.32;100.00
12594;BME280;6362;50.208;9.182;2022-10-16T03:57:14;99661.56;;;14.33;100.00
12594;BME280;6362;50.208;9.182;2022-10-16T03:59:39;99659.84;;;14.32;100.00
12594;BME280;6362;50.208;9.182;2022-10-16T04:02:04;99655.63;;;14.26;100.00
12594;BME280;6362;50.208;9.182;2022-10-16T04:04:30;99652.22;;;14.26;100.00
12594;BME280;6362;50.208;9.182;2022-10-16T04:06:55;99657.34;;;14.26;100.00
12594;BME280;6362;50.208;9.182;2022-10-16T04:09:20;99653.91;;;14.28;100.00
12594;BME280;6362;50.208;9.182;2022-10-16T04:11:46;99663.28;;;14.32;100.00
12594;BME280;6362;50.208;9.182;2022-10-16T04:14:11;99667.53;;;14.36;100.00
12594;BME280;6362;50.208;9.182;2022-10-16T04:16:37;99670.09;;;14.33;100.00
12594;BME280;6362;50.208;9.182;2022-10-16T04:19:02;99670.97;;;14.32;100.00
12594;BME280;6362;50.208;9.182;2022-10-16T04:21:28;99675.25;;;14.30;100.00
12594;BME280;6362;50.208;9.182;2022-10-16T04:23:53;99671.00;;;14.26;100.00
12594;BME280;6362;50.208;9.182;2022-10-16T04:26:18;99670.13;;;14.29;100.00
12594;BME280;6362;50.208;9.182;2022-10-16T04:28:44;99666.72;;;14.28;100.00
12594;BME280;6362;50.208;9.182;2022-10-16T04:31:09;99654.75;;;14.30;100.00
12594;BME280;6362;50.208;9.182;2022-10-16T04:33:35;99656.41;;;14.34;100.00
12594;BME280;6362;50.208;9.182;2022-10-16T04:36:01;99671.78;;;14.37;100.00
12594;BME280;6362;50.208;9.182;2022-10-16T04:38:27;99676.91;;;14.36;100.00
12594;BME280;6362;50.208;9.182;2022-10-16T04:40:53;99678.63;;;14.35;100.00
12594;BME280;6362;50.208;9.182;2022-10-16T04:43:19;99677.78;;;14.36;100.00
12594;BME280;6362;50.208;9.182;2022-10-16T04:45:44;99685.50;;;14.33;100.00
12594;BME280;6362;50.208;9.182;2022-10-16T04:48:10;99683.78;;;14.34;100.00
12594;BME280;6362;50.208;9.182;2022-10-16T04:50:36;99684.63;;;14.36;100.00
12594;BME280;6362;50.208;9.182;2022-10-16T04:53:01;99684.66;;;14.33;100.00
12594;BME280;6362;50.208;9.182;2022-10-16T04:55:26;99685.50;;;14.32;100.00
12594;BME280;6362;50.208;9.182;2022-10-16T04:57:52;99681.25;;;14.31;100.00
12594;BME280;6362;50.208;9.182;2022-10-16T05:00:17;99676.94;;;14.31;100.00
12594;BME280;6362;50.208;9.182;2022-10-16T05:02:43;99679.53;;;14.31;100.00
12594;BME280;6362;50.208;9.182;2022-10-16T05:05:08;99676.94;;;14.31;100.00
12594;BME280;6362;50.208;9.182;2022-10-16T05:07:34;99668.38;;;14.34;100.00
12594;BME280;6362;50.208;9.182;2022-10-16T05:09:59;99673.50;;;14.35;100.00
12594;BME280;6362;50.208;9.182;2022-10-16T05:12:25;99671.78;;;14.37;100.00
12594;BME280;6362;50.208;9.182;2022-10-16T05:14:50;99671.78;;;14.39;100.00
12594;BME280;6362;50.208;9.182;2022-10-16T05:17:16;99671.78;;;14.37;100.00
12594;BME280;6362;50.208;9.182;2022-10-16T05:19:41;99674.34;;;14.37;100.00
12594;BME280;6362;50.208;9.182;2022-10-16T05:22:07;99676.91;;;14.39;100.00
12594;BME280;6362;50.208;9.182;2022-10-16T05:24:32;99677.75;;;14.38;100.00
12594;BME280;6362;50.208;9.182;2022-10-16T05:26:58;99679.47;;;14.37;100.00
12594;BME280;6362;50.208;9.182;2022-10-16T05:29:23;99679.47;;;14.37;100.00
12594;BME280;6362;50.208;9.182;2022-10-16T05:31:52;99679.47;;;14.37;100.00
12594;BME280;6362;50.208;9.182;2022-10-16T05:34:19;99678.59;;;14.38;100.00
12594;BME280;6362;50.208;9.182;2022-10-16T05:36:44;99683.72;;;14.42;100.00
12594;BME280;6362;50.208;9.182;2022-10-16T05:39:10;99676.88;;;14.41;100.00
12594;BME280;6362;50.208;9.182;2022-10-16T05:41:36;99679.44;;;14.42;100.00
12594;BME280;6362;50.208;9.182;2022-10-16T05:44:04;99677.75;;;14.40;100.00
12594;BME280;6362;50.208;9.182;2022-10-16T05:46:29;99682.00;;;14.41;100.00
12594;BME280;6362;50.208;9.182;2022-10-16T05:48:55;99683.72;;;14.42;100.00
12594;BME280;6362;50.208;9.182;2022-10-16T05:51:20;99696.53;;;14.43;100.00
12594;BME280;6362;50.208;9.182;2022-10-16T05:53:46;99697.38;;;14.45;100.00
12594;BME280;6362;50.208;9.182;2022-10-16T05:56:11;99699.94;;;14.47;100.00
12594;BME280;6362;50.208;9.182;2022-10-16T05:58:38;99705.03;;;14.50;100.00
12594;BME280;6362;50.208;9.182;2022-10-16T06:01:14;99705.03;;;14.51;100.00
12594;BME280;6362;50.208;9.182;2022-10-16T06:03:39;99706.72;;;14.54;100.00
12594;BME280;6362;50.208;9.182;2022-10-16T06:08:34;99693.03;;;14.52;100.00
12594;BME280;6362;50.208;9.182;2022-10-16T06:11:04;99688.75;;;14.54;100.00
12594;BME280;6362;50.208;9.182;2022-10-16T06:13:30;99688.78;;;14.55;100.00
12594;BME280;6362;50.208;9.182;2022-10-16T06:15:57;99696.47;;;14.57;100.00
12594;BME280;6362;50.208;9.182;2022-10-16T06:18:24;99709.22;;;14.63;100.00
12594;BME280;6362;50.208;9.182;2022-10-16T06:20:49;99713.47;;;14.70;100.00
12594;BME280;6362;50.208;9.182;2022-10-16T06:23:14;99721.09;;;14.76;100.00
12594;BME280;6362;50.208;9.182;2022-10-16T06:25:40;99729.69;;;14.74;100.00
12594;BME280;6362;50.208;9.182;2022-10-16T06:28:05;99725.44;;;14.73;100.00
12594;BME280;6362;50.208;9.182;2022-10-16T06:30:31;99719.41;;;14.72;100.00
12594;BME280;6362;50.208;9.182;2022-10-16T06:32:56;99733.97;;;14.73;100.00
12594;BME280;6362;50.208;9.182;2022-10-16T06:35:22;99727.09;;;14.75;100.00
12594;BME280;6362;50.208;9.182;2022-10-16T06:37:47;99726.22;;;14.76;100.00
12594;BME280;6362;50.208;9.182;2022-10-16T06:40:13;99733.03;;;14.82;100.00
12594;BME280;6362;50.208;9.182;2022-10-16T06:42:40;99742.38;;;14.89;100.00
12594;BME280;6362;50.208;9.182;2022-10-16T06:45:05;99738.88;;;14.95;100.00
12594;BME280;6362;50.208;9.182;2022-10-16T06:47:31;99754.28;;;14.98;100.00
12594;BME280;6362;50.208;9.182;2022-10-16T06:49:56;99748.22;;;15.04;100.00
12594;BME280;6362;50.208;9.182;2022-10-16T06:52:22;99753.31;;;15.08;100.00
12594;BME280;6362;50.208;9.182;2022-10-16T06:54:47;99754.16;;;15.13;100.00
12594;BME280;6362;50.208;9.182;2022-10-16T06:57:12;99752.41;;;15.15;100.00
12594;BME280;6362;50.208;9.182;2022-10-16T06:59:38;99761.72;;;15.26;100.00
12594;BME280;6362;50.208;9.182;2022-10-16T07:02:03;99758.25;;;15.30;100.00
12594;BME280;6362;50.208;9.182;2022-10-16T07:04:29;99762.44;;;15.38;100.00
12594;BME280;6362;50.208;9.182;2022-10-16T07:06:54;99758.94;;;15.46;100.00
12594;BME280;6362;50.208;9.182;2022-10-16T07:09:19;99759.75;;;15.49;100.00
12594;BME280;6362;50.208;9.182;2022-10-16T07:11:45;99761.34;;;15.58;100.00
12594;BME280;6362;50.208;9.182;2022-10-16T07:14:17;99769.06;;;15.59;100.00
12594;BME280;6362;50.208;9.182;2022-10-16T07:16:42;99768.09;;;15.70;100.00
12594;BME280;6362;50.208;9.182;2022-10-16T07:19:08;99762.88;;;15.76;100.00
12594;BME280;6362;50.208;9.182;2022-10-16T07:21:34;99760.22;;;15.85;100.00
12594;BME280;6362;50.208;9.182;2022-10-16T07:24:05;99774.69;;;15.92;100.00
12594;BME280;6362;50.208;9.182;2022-10-16T07:26:33;99771.97;;;16.03;100.00
12594;BME280;6362;50.208;9.182;2022-10-16T07:28:59;99781.31;;;16.10;100.00
12594;BME280;6362;50.208;9.182;2022-10-16T07:31:26;99782.06;;;16.18;100.00
12594;BME280;6362;50.208;9.182;2022-10-16T07:33:52;99787.13;;;16.26;100.00
12594;BME280;6362;50.208;9.182;2022-10-16T07:36:19;99794.69;;;16.35;100.00
12594;BME280;6362;50.208;9.182;2022-10-16T07:38:46;99790.25;;;16.47;100.00
12594;BME280;6362;50.208;9.182;2022-10-16T07:41:14;99802.06;;;16.58;100.00
12594;BME280;6362;50.208;9.182;2022-10-16T07:43:44;99799.38;;;16.66;100.00
12594;BME280;6362;50.208;9.182;2022-10-16T07:46:10;99795.88;;;16.70;100.00
12594;BME280;6362;50.208;9.182;2022-10-16T07:48:35;99792.47;;;16.68;100.00
12594;BME280;6362;50.208;9.182;2022-10-16T07:51:04;99794.97;;;16.73;100.00
12594;BME280;6362;50.208;9.182;2022-10-16T07:53:30;99800.91;;;16.79;100.00
12594;BME280;6362;50.208;9.182;2022-10-16T07:55:59;99799.06;;;16.88;100.00
12594;BME280;6362;50.208;9.182;2022-10-16T07:58:25;99808.47;;;16.92;100.00
12594;BME280;6362;50.208;9.182;2022-10-16T08:00:51;99810.25;;;16.87;100.00
12594;BME280;6362;50.208;9.182;2022-10-16T08:03:16;99821.44;;;16.84;100.00
12594;BME280;6362;50.208;9.182;2022-10-16T08:05:42;99822.34;;;16.81;100.00
12594;BME280;6362;50.208;9.182;2022-10-16T08:08:12;99824.97;;;16.77;100.00
12594;BME280;6362;50.208;9.182;2022-10-16T08:10:38;99833.66;;;16.70;100.00
12594;BME280;6362;50.208;9.182;2022-10-16T08:13:04;99843.13;;;16.69;100.00
12594;BME280;6362;50.208;9.182;2022-10-16T08:15:29;99842.31;;;16.65;100.00
12594;BME280;6362;50.208;9.182;2022-10-16T08:20:21;99839.78;;;16.64;100.00
12594;BME280;6362;50.208;9.182;2022-10-16T08:22:47;99846.69;;;16.60;100.00
12594;BME280;6362;50.208;9.182;2022-10-16T08:25:12;99843.28;;;16.57;100.00
12594;BME280;6362;50.208;9.182;2022-10-16T08:27:38;99857.09;;;16.53;100.00
12594;BME280;6362;50.208;9.182;2022-10-16T08:30:03;99868.25;;;16.52;100.00
12594;BME280;6362;50.208;9.182;2022-10-16T08:32:29;99865.69;;;16.50;100.00
12594;BME280;6362;50.208;9.182;2022-10-16T08:34:54;99870.00;;;16.51;100.00
12594;BME280;6362;50.208;9.182;2022-10-16T08:37:20;99876.81;;;16.54;100.00
12594;BME280;6362;50.208;9.182;2022-10-16T08:39:45;99880.22;;;16.56;100.00
12594;BME280;6362;50.208;9.182;2022-10-16T08:42:27;99881.06;;;16.58;100.00
12594;BME280;6362;50.208;9.182;2022-10-16T08:47:45;99888.72;;;16.61;100.00
12594;BME280;6362;50.208;9.182;2022-10-16T08:50:18;99887.88;;;16.62;100.00
12594;BME280;6362;50.208;9.182;2022-10-16T08:52:46;99893.88;;;16.62;100.00
12594;BME280;6362;50.208;9.182;2022-10-16T08:57:52;99900.75;;;16.60;100.00
12594;BME280;6362;50.208;9.182;2022-10-16T09:00:18;99899.03;;;16.62;100.00
12594;BME280;6362;50.208;9.182;2022-10-16T09:10:59;99907.50;;;16.69;100.00
12594;BME280;6362;50.208;9.182;2022-10-16T09:16:25;99914.25;;;16.79;100.00
12594;BME280;6362;50.208;9.182;2022-10-16T09:19:30;99919.31;;;16.87;100.00
12594;BME280;6362;50.208;9.182;2022-10-16T09:21:57;99927.84;;;16.91;100.00
12594;BME280;6362;50.208;9.182;2022-10-16T09:24:26;99927.75;;;16.97;100.00
12594;BME280;6362;50.208;9.182;2022-10-16T09:26:51;99931.16;;;16.99;100.00
12594;BME280;6362;50.208;9.182;2022-10-16T09:29:19;99936.31;;;16.99;100.00
12594;BME280;6362;50.208;9.182;2022-10-16T09:31:50;99932.91;;;16.97;100.00
12594;BME280;6362;50.208;9.182;2022-10-16T09:34:32;99942.38;;;16.96;100.00
12594;BME280;6362;50.208;9.182;2022-10-16T09:37:00;99938.97;;;16.93;100.00
12594;BME280;6362;50.208;9.182;2022-10-16T09:39:28;99940.78;;;16.88;100.00
12594;BME280;6362;50.208;9.182;2022-10-16T09:41:54;99941.66;;;16.87;100.00
12594;BME280;6362;50.208;9.182;2022-10-16T09:44:24;99947.69;;;16.84;100.00
12594;BME280;6362;50.208;9.182;2022-10-16T09:47:05;99947.69;;;16.84;100.00
12594;BME280;6362;50.208;9.182;2022-10-16T09:49:31;99962.34;;;16.80;100.00
12594;BME280;6362;50.208;9.182;2022-10-16T09:52:12;99958.91;;;16.77;100.00
12594;BME280;6362;50.208;9.182;2022-10-16T09:54:49;99963.19;;;16.82;100.00
12594;BME280;6362;50.208;9.182;2022-10-16T09:57:14;99968.19;;;16.92;100.00
12594;BME280;6362;50.208;9.182;2022-10-16T09:59:53;99974.97;;;16.99;100.00
12594;BME280;6362;50.208;9.182;2022-10-16T10:02:31;99975.78;;;17.02;100.00
12594;BME280;6362;50.208;9.182;2022-10-16T10:04:59;99974.81;;;17.08;100.00
12594;BME280;6362;50.208;9.182;2022-10-16T10:07:32;99977.25;;;17.17;100.00
12594;BME280;6362;50.208;9.182;2022-10-16T10:09:59;99983.94;;;17.32;100.00
12594;BME280;6362;50.208;9.182;2022-10-16T10:12:30;99983.03;;;17.33;100.00
12594;BME280;6362;50.208;9.182;2022-10-16T10:15:07;99981.34;;;17.32;100.00
12594;BME280;6362;50.208;9.182;2022-10-16T10:22:58;99983.09;;;17.30;100.00
12594;BME280;6362;50.208;9.182;2022-10-16T10:30:56;99983.78;;;17.41;100.00
12594;BME280;6362;50.208;9.182;2022-10-16T10:36:40;99989.72;;;17.45;100.00
12594;BME280;6362;50.208;9.182;2022-10-16T10:39:17;99986.38;;;17.40;100.00
12594;BME280;6362;50.208;9.182;2022-10-16T10:42:08;99986.56;;;17.27;100.00
12594;BME280;6362;50.208;9.182;2022-10-16T10:48:06;100004.78;;;17.17;100.00
12594;BME280;6362;50.208;9.182;2022-10-16T10:51:04;99992.88;;;17.06;100.00
12594;BME280;6362;50.208;9.182;2022-10-16T10:53:47;99983.19;;;17.22;100.00
12594;BME280;6362;50.208;9.182;2022-10-16T10:56:50;99986.78;;;17.68;100.00
12594;BME280;6362;50.208;9.182;2022-10-16T11:02:31;99978.53;;;18.44;100.00
12594;BME280;6362;50.208;9.182;2022-10-16T11:07:38;99974.19;;;18.46;100.00
12594;BME280;6362;50.208;9.182;2022-10-16T11:10:27;99972.56;;;18.42;100.00
12594;BME280;6362;50.208;9.182;2022-10-16T11:12:59;99968.53;;;18.28;100.00
12594;BME280;6362;50.208;9.182;2022-10-16T11:15:33;99970.28;;;18.26;100.00
12594;BME280;6362;50.208;9.182;2022-10-16T11:21:06;99959.50;;;18.48;100.00
12594;BME280;6362;50.208;9.182;2022-10-16T11:26:05;99968.56;;;18.69;100.00
12594;BME280;6362;50.208;9.182;2022-10-16T11:28:47;99972.75;;;18.75;100.00
12594;BME280;6362;50.208;9.182;2022-10-16T11:33:44;99966.25;;;18.97;100.00
12594;BME280;6362;50.208;9.182;2022-10-16T11:36:22;99962.25;;;19.21;100.00
12594;BME280;6362;50.208;9.182;2022-10-16T11:39:06;99966.38;;;19.28;100.00
12594;BME280;6362;50.208;9.182;2022-10-16T11:41:44;99961.31;;;19.24;100.00
12594;BME280;6362;50.208;9.182;2022-10-16T11:47:23;99972.41;;;18.91;100.00
12594;BME280;6362;50.208;9.182;2022-10-16T11:49:57;99977.88;;;18.76;100.00
12594;BME280;6362;50.208;9.182;2022-10-16T11:52:30;99972.19;;;18.60;100.00
12594;BME280;6362;50.208;9.182;2022-10-16T11:55:05;99973.34;;;18.45;100.00
12594;BME280;6362;50.208;9.182;2022-10-16T11:57:46;99964.78;;;18.43;100.00
12594;BME280;6362;50.208;9.182;2022-10-16T12:00:28;99965.56;;;18.47;100.00
12594;BME280;6362;50.208;9.182;2022-10-16T12:03:20;99965.31;;;18.59;100.00
12594;BME280;6362;50.208;9.182;2022-10-16T12:06:04;99963.41;;;18.69;100.00
12594;BME280;6362;50.208;9.182;2022-10-16T12:08:34;99963.94;;;18.85;100.00
12594;BME280;6362;50.208;9.182;2022-10-16T12:14:05;99971.28;;;19.03;100.00
12594;BME280;6362;50.208;9.182;2022-10-16T12:16:32;99969.31;;;19.13;100.00
12594;BME280;6362;50.208;9.182;2022-10-16T12:19:12;99978.72;;;19.17;100.00
12594;BME280;6362;50.208;9.182;2022-10-16T12:21:38;99977.06;;;19.14;100.00
12594;BME280;6362;50.208;9.182;2022-10-16T12:24:04;99973.53;;;19.17;100.00
12594;BME280;6362;50.208;9.182;2022-10-16T12:26:37;99978.72;;;19.17;100.00
12594;BME280;6362;50.208;9.182;2022-10-16T12:29:39;99971.69;;;19.22;100.00
12594;BME280;6362;50.208;9.182;2022-10-16T12:32:26;99968.25;;;19.22;100.00
12594;BME280;6362;50.208;9.182;2022-10-16T12:34:53;99970.75;;;19.26;100.00
12594;BME280;6362;50.208;9.182;2022-10-16T12:39:48;99976.41;;;19.42;100.00
12594;BME280;6362;50.208;9.182;2022-10-16T12:42:30;99979.47;;;19.58;100.00
12594;BME280;6362;50.208;9.182;2022-10-16T12:44:56;99974.28;;;20.58;100.00
12594;BME280;6362;50.208;9.182;2022-10-16T12:47:37;99984.09;;;21.33;100.00
12594;BME280;6362;50.208;9.182;2022-10-16T12:50:03;99969.38;;;22.59;100.00
12594;BME280;6362;50.208;9.182;2022-10-16T12:52:48;99971.03;;;24.52;100.00
12594;BME280;6362;50.208;9.182;2022-10-16T12:55:19;99974.28;;;26.01;97.18
12594;BME280;6362;50.208;9.182;2022-10-16T12:58:07;99979.19;;;26.88;84.74
12594;BME280;6362;50.208;9.182;2022-10-16T13:03:20;99969.72;;;28.51;80.10
12594;BME280;6362;50.208;9.182;2022-10-16T13:06:00;99985.63;;;29.31;67.07
12594;BME280;6362;50.208;9.182;2022-10-16T13:22:51;99997.59;;;25.87;79.38
12594;BME280;6362;50.208;9.182;2022-10-16T13:28:03;99990.31;;;24.48;92.30
12594;BME280;6362;50.208;9.182;2022-10-16T13:30:41;99986.28;;;24.98;90.43
12594;BME280;6362;50.208;9.182;2022-10-16T13:33:11;99997.22;;;24.87;90.90
12594;BME280;6362;50.208;9.182;2022-10-16T13:35:47;99995.56;;;24.27;95.48
12594;BME280;6362;50.208;9.182;2022-10-16T13:38:15;100010.13;;;23.70;98.81
12594;BME280;6362;50.208;9.182;2022-10-16T13:40:52;99997.19;;;23.26;100.00
12594;BME280;6362;50.208;9.182;2022-10-16T13:43:20;99998.47;;;22.69;100.00
12594;BME280;6362;50.208;9.182;2022-10-16T13:45:55;100000.41;;;22.15;100.00
12594;BME280;6362;50.208;9.182;2022-10-16T13:48:21;100007.88;;;21.74;100.00
12594;BME280;6362;50.208;9.182;2022-10-16T13:50:58;100004.63;;;21.39;100.00
12594;BME280;6362;50.208;9.182;2022-10-16T13:53:24;100008.47;;;21.27;100.00
12594;BME280;6362;50.208;9.182;2022-10-16T13:55:49;100006.00;;;21.23;100.00
12594;BME280;6362;50.208;9.182;2022-10-16T13:58:14;100002.09;;;21.09;100.00
12594;BME280;6362;50.208;9.182;2022-10-16T14:00:58;99997.50;;;20.89;100.00
12594;BME280;6362;50.208;9.182;2022-10-16T14:03:24;100002.53;;;20.66;100.00
12594;BME280;6362;50.208;9.182;2022-10-16T14:05:59;99998.72;;;20.46;100.00
12594;BME280;6362;50.208;9.182;2022-10-16T14:08:26;99999.78;;;20.41;100.00
12594;BME280;6362;50.208;9.182;2022-10-16T14:10:55;100003.50;;;20.30;100.00
12594;BME280;6362;50.208;9.182;2022-10-16T14:13:31;100005.38;;;20.25;100.00
12594;BME280;6362;50.208;9.182;2022-10-16T14:16:02;99999.63;;;20.14;100.00
12594;BME280;6362;50.208;9.182;2022-10-16T14:18:30;100003.41;;;20.02;100.00
12594;BME280;6362;50.208;9.182;2022-10-16T14:21:03;99993.34;;;19.90;100.00
12594;BME280;6362;50.208;9.182;2022-10-16T14:23:37;99994.75;;;19.69;100.00
12594;BME280;6362;50.208;9.182;2022-10-16T14:28:35;99989.09;;;19.51;100.00
12594;BME280;6362;50.208;9.182;2022-10-16T14:31:03;99985.88;;;19.43;100.00
12594;BME280;6362;50.208;9.182;2022-10-16T14:33:45;100001.66;;;19.32;100.00
12594;BME280;6362;50.208;9.182;2022-10-16T14:36:11;99995.78;;;19.24;100.00
12594;BME280;6362;50.208;9.182;2022-10-16T14:38:39;99999.38;;;19.19;100.00
12594;BME280;6362;50.208;9.182;2022-10-16T14:41:05;100002.19;;;19.09;100.00
12594;BME280;6362;50.208;9.182;2022-10-16T14:43:40;100000.53;;;19.05;100.00
12594;BME280;6362;50.208;9.182;2022-10-16T14:46:13;99995.53;;;18.98;100.00
12594;BME280;6362;50.208;9.182;2022-10-16T14:48:43;99995.59;;;18.95;100.00